Terminal Aerodrome Forecast
Issued by NWS

Home | Current Version | Previous Version | Text Only | Print | Product List | Glossary On
Versions: 1 2 3 4 5 6 7 8 9 10 11 12 13 14 15 16 17 18 19
077
FTUS41 KGYX 131120
TAFPSM
TAF
KPSM 131120Z 1312/1412 27010KT P6SM SCT020 BKN120
     FM131600 28017G30KT P6SM SCT050
     FM140200 26010KT P6SM SCT250=

USA.gov is the U.S. government's official web portal to all federal, state and local government web resources and services.